sensor_id;sensor_type;location;lat;lon;timestamp;temperature;humidity
46932;DHT22;32670;51.464;11.964;2023-08-07T00:00:05;24.30;58.30
46932;DHT22;32670;51.464;11.964;2023-08-07T00:02:31;24.30;58.20
46932;DHT22;32670;51.464;11.964;2023-08-07T00:04:56;24.30;58.40
46932;DHT22;32670;51.464;11.964;2023-08-07T00:07:23;24.30;58.30
46932;DHT22;32670;51.464;11.964;2023-08-07T00:09:50;24.30;58.60
46932;DHT22;32670;51.464;11.964;2023-08-07T00:12:15;24.30;58.30
46932;DHT22;32670;51.464;11.964;2023-08-07T00:14:41;24.40;58.30
46932;DHT22;32670;51.464;11.964;2023-08-07T00:17:06;24.30;58.20
46932;DHT22;32670;51.464;11.964;2023-08-07T00:19:32;24.30;58.20
46932;DHT22;32670;51.464;11.964;2023-08-07T00:21:57;24.30;58.80
46932;DHT22;32670;51.464;11.964;2023-08-07T00:24:23;24.30;58.40
46932;DHT22;32670;51.464;11.964;2023-08-07T00:26:48;24.40;58.50
46932;DHT22;32670;51.464;11.964;2023-08-07T00:29:14;24.30;58.30
46932;DHT22;32670;51.464;11.964;2023-08-07T00:31:39;24.30;58.90
46932;DHT22;32670;51.464;11.964;2023-08-07T00:34:05;24.30;58.40
46932;DHT22;32670;51.464;11.964;2023-08-07T00:36:30;24.30;58.40
46932;DHT22;32670;51.464;11.964;2023-08-07T00:39:00;24.30;58.40
46932;DHT22;32670;51.464;11.964;2023-08-07T00:41:25;24.30;58.30
46932;DHT22;32670;51.464;11.964;2023-08-07T00:43:51;24.30;58.20
46932;DHT22;32670;51.464;11.964;2023-08-07T00:46:17;24.30;58.30
46932;DHT22;32670;51.464;11.964;2023-08-07T00:48:43;24.30;58.30
46932;DHT22;32670;51.464;11.964;2023-08-07T00:51:08;24.30;58.40
46932;DHT22;32670;51.464;11.964;2023-08-07T00:53:38;24.40;58.80
46932;DHT22;32670;51.464;11.964;2023-08-07T00:56:04;24.30;58.40
46932;DHT22;32670;51.464;11.964;2023-08-07T00:58:30;24.30;58.50
46932;DHT22;32670;51.464;11.964;2023-08-07T01:00:55;24.40;58.30
46932;DHT22;32670;51.464;11.964;2023-08-07T01:03:21;24.30;58.20
46932;DHT22;32670;51.464;11.964;2023-08-07T01:05:46;24.40;58.20
46932;DHT22;32670;51.464;11.964;2023-08-07T01:08:12;24.40;58.30
46932;DHT22;32670;51.464;11.964;2023-08-07T01:11:18;24.30;58.20
46932;DHT22;32670;51.464;11.964;2023-08-07T01:14:07;24.40;58.10
46932;DHT22;32670;51.464;11.964;2023-08-07T01:17:04;24.40;58.20
46932;DHT22;32670;51.464;11.964;2023-08-07T01:19:31;24.40;58.30
46932;DHT22;32670;51.464;11.964;2023-08-07T01:22:14;24.30;58.10
46932;DHT22;32670;51.464;11.964;2023-08-07T01:24:41;24.40;58.20
46932;DHT22;32670;51.464;11.964;2023-08-07T01:30:21;24.30;58.00
46932;DHT22;32670;51.464;11.964;2023-08-07T01:33:10;24.40;58.00
46932;DHT22;32670;51.464;11.964;2023-08-07T01:35:47;24.30;58.00
46932;DHT22;32670;51.464;11.964;2023-08-07T01:38:13;24.30;57.90
46932;DHT22;32670;51.464;11.964;2023-08-07T01:40:40;24.30;57.90
46932;DHT22;32670;51.464;11.964;2023-08-07T01:43:07;24.30;57.80
46932;DHT22;32670;51.464;11.964;2023-08-07T01:45:33;24.30;57.80
46932;DHT22;32670;51.464;11.964;2023-08-07T01:47:59;24.30;57.80
46932;DHT22;32670;51.464;11.964;2023-08-07T01:50:25;24.30;57.80
46932;DHT22;32670;51.464;11.964;2023-08-07T01:52:50;24.30;57.80
46932;DHT22;32670;51.464;11.964;2023-08-07T01:55:17;24.30;57.70
46932;DHT22;32670;51.464;11.964;2023-08-07T01:57:43;24.30;57.60
46932;DHT22;32670;51.464;11.964;2023-08-07T02:00:09;24.30;57.70
46932;DHT22;32670;51.464;11.964;2023-08-07T02:02:36;24.20;57.50
46932;DHT22;32670;51.464;11.964;2023-08-07T02:05:02;24.30;57.50
46932;DHT22;32670;51.464;11.964;2023-08-07T02:07:27;24.30;57.40
46932;DHT22;32670;51.464;11.964;2023-08-07T02:09:53;24.30;57.40
46932;DHT22;32670;51.464;11.964;2023-08-07T02:12:18;24.20;57.30
46932;DHT22;32670;51.464;11.964;2023-08-07T02:14:44;24.30;57.30
46932;DHT22;32670;51.464;11.964;2023-08-07T02:17:09;24.20;57.20
46932;DHT22;32670;51.464;11.964;2023-08-07T02:19:35;24.30;57.20
46932;DHT22;32670;51.464;11.964;2023-08-07T02:22:01;24.30;57.20
46932;DHT22;32670;51.464;11.964;2023-08-07T02:24:27;24.30;57.10
46932;DHT22;32670;51.464;11.964;2023-08-07T02:26:52;24.20;57.00
46932;DHT22;32670;51.464;11.964;2023-08-07T02:29:18;24.20;57.00
46932;DHT22;32670;51.464;11.964;2023-08-07T02:31:43;24.20;57.00
46932;DHT22;32670;51.464;11.964;2023-08-07T02:34:08;24.20;57.10
46932;DHT22;32670;51.464;11.964;2023-08-07T02:36:34;24.20;57.00
46932;DHT22;32670;51.464;11.964;2023-08-07T02:38:59;24.20;57.10
46932;DHT22;32670;51.464;11.964;2023-08-07T02:41:25;24.20;57.00
46932;DHT22;32670;51.464;11.964;2023-08-07T02:43:50;24.20;57.10
46932;DHT22;32670;51.464;11.964;2023-08-07T02:46:16;24.20;56.90
46932;DHT22;32670;51.464;11.964;2023-08-07T02:48:43;24.20;56.90
46932;DHT22;32670;51.464;11.964;2023-08-07T02:51:09;24.20;57.00
46932;DHT22;32670;51.464;11.964;2023-08-07T02:53:34;24.20;57.00
46932;DHT22;32670;51.464;11.964;2023-08-07T02:56:00;24.20;57.10
46932;DHT22;32670;51.464;11.964;2023-08-07T02:58:25;24.20;57.10
46932;DHT22;32670;51.464;11.964;2023-08-07T03:00:51;24.20;57.00
46932;DHT22;32670;51.464;11.964;2023-08-07T03:03:16;24.20;57.10
46932;DHT22;32670;51.464;11.964;2023-08-07T03:05:49;24.20;57.20
46932;DHT22;32670;51.464;11.964;2023-08-07T03:08:15;24.10;57.10
46932;DHT22;32670;51.464;11.964;2023-08-07T03:10:41;24.20;57.20
46932;DHT22;32670;51.464;11.964;2023-08-07T03:13:06;24.20;57.30
46932;DHT22;32670;51.464;11.964;2023-08-07T03:15:32;24.20;57.30
46932;DHT22;32670;51.464;11.964;2023-08-07T03:17:57;24.20;57.30
46932;DHT22;32670;51.464;11.964;2023-08-07T03:20:23;24.20;57.30
46932;DHT22;32670;51.464;11.964;2023-08-07T03:22:48;24.20;57.40
46932;DHT22;32670;51.464;11.964;2023-08-07T03:25:13;24.20;57.30
46932;DHT22;32670;51.464;11.964;2023-08-07T03:27:39;24.20;57.40
46932;DHT22;32670;51.464;11.964;2023-08-07T03:30:05;24.20;57.30
46932;DHT22;32670;51.464;11.964;2023-08-07T03:32:30;24.20;57.20
46932;DHT22;32670;51.464;11.964;2023-08-07T03:34:56;24.20;57.20
46932;DHT22;32670;51.464;11.964;2023-08-07T03:37:21;24.20;57.20
46932;DHT22;32670;51.464;11.964;2023-08-07T03:39:47;24.20;57.10
46932;DHT22;32670;51.464;11.964;2023-08-07T03:42:13;24.20;57.20
46932;DHT22;32670;51.464;11.964;2023-08-07T03:44:40;24.10;57.20
46932;DHT22;32670;51.464;11.964;2023-08-07T03:47:06;24.20;57.30
46932;DHT22;32670;51.464;11.964;2023-08-07T03:49:31;24.20;56.80
46932;DHT22;32670;51.464;11.964;2023-08-07T03:51:57;24.20;56.40
46932;DHT22;32670;51.464;11.964;2023-08-07T03:54:24;24.30;55.80
46932;DHT22;32670;51.464;11.964;2023-08-07T03:56:50;24.30;55.80
46932;DHT22;32670;51.464;11.964;2023-08-07T03:59:16;24.30;55.70
46932;DHT22;32670;51.464;11.964;2023-08-07T04:01:42;24.30;55.50
46932;DHT22;32670;51.464;11.964;2023-08-07T04:04:07;24.30;55.60
46932;DHT22;32670;51.464;11.964;2023-08-07T04:06:33;24.30;55.50
46932;DHT22;32670;51.464;11.964;2023-08-07T04:08:58;24.30;55.40
46932;DHT22;32670;51.464;11.964;2023-08-07T04:11:24;24.40;55.40
46932;DHT22;32670;51.464;11.964;2023-08-07T04:13:50;24.40;55.40
46932;DHT22;32670;51.464;11.964;2023-08-07T04:16:15;24.30;55.30
46932;DHT22;32670;51.464;11.964;2023-08-07T04:18:42;24.30;55.30
46932;DHT22;32670;51.464;11.964;2023-08-07T04:21:07;24.30;55.20
46932;DHT22;32670;51.464;11.964;2023-08-07T04:23:33;24.30;55.10
46932;DHT22;32670;51.464;11.964;2023-08-07T04:25:59;24.30;55.30
46932;DHT22;32670;51.464;11.964;2023-08-07T04:28:24;24.30;55.00
46932;DHT22;32670;51.464;11.964;2023-08-07T04:30:51;24.30;54.70
46932;DHT22;32670;51.464;11.964;2023-08-07T04:33:17;24.30;55.10
46932;DHT22;32670;51.464;11.964;2023-08-07T04:35:42;24.30;55.30
46932;DHT22;32670;51.464;11.964;2023-08-07T04:38:08;24.30;55.20
46932;DHT22;32670;51.464;11.964;2023-08-07T04:40:34;24.30;55.40
46932;DHT22;32670;51.464;11.964;2023-08-07T04:42:59;24.30;55.50
46932;DHT22;32670;51.464;11.964;2023-08-07T04:45:25;24.40;55.70
46932;DHT22;32670;51.464;11.964;2023-08-07T04:47:51;24.40;55.60
46932;DHT22;32670;51.464;11.964;2023-08-07T04:50:17;24.40;55.70
46932;DHT22;32670;51.464;11.964;2023-08-07T04:52:42;24.40;55.70
46932;DHT22;32670;51.464;11.964;2023-08-07T04:55:08;24.40;55.80
46932;DHT22;32670;51.464;11.964;2023-08-07T04:57:33;24.40;55.70
46932;DHT22;32670;51.464;11.964;2023-08-07T04:59:59;24.40;55.70
46932;DHT22;32670;51.464;11.964;2023-08-07T05:02:24;24.40;55.80
46932;DHT22;32670;51.464;11.964;2023-08-07T05:04:50;24.40;55.80
46932;DHT22;32670;51.464;11.964;2023-08-07T05:07:15;24.40;55.90
46932;DHT22;32670;51.464;11.964;2023-08-07T05:09:41;24.40;56.00
46932;DHT22;32670;51.464;11.964;2023-08-07T05:12:06;24.40;56.00
46932;DHT22;32670;51.464;11.964;2023-08-07T05:14:32;24.50;56.20
46932;DHT22;32670;51.464;11.964;2023-08-07T05:16:58;24.40;56.30
46932;DHT22;32670;51.464;11.964;2023-08-07T05:19:25;24.50;56.60
46932;DHT22;32670;51.464;11.964;2023-08-07T05:21:50;24.40;55.40
46932;DHT22;32670;51.464;11.964;2023-08-07T05:24:17;24.40;55.00
46932;DHT22;32670;51.464;11.964;2023-08-07T05:26:42;24.20;54.80
46932;DHT22;32670;51.464;11.964;2023-08-07T05:29:08;24.10;55.10
46932;DHT22;32670;51.464;11.964;2023-08-07T05:31:33;24.00;55.10
46932;DHT22;32670;51.464;11.964;2023-08-07T05:33:59;23.90;55.20
46932;DHT22;32670;51.464;11.964;2023-08-07T05:36:25;23.80;55.30
46932;DHT22;32670;51.464;11.964;2023-08-07T05:38:50;23.70;55.40
46932;DHT22;32670;51.464;11.964;2023-08-07T05:41:16;23.70;55.50
46932;DHT22;32670;51.464;11.964;2023-08-07T05:43:42;23.60;55.50
46932;DHT22;32670;51.464;11.964;2023-08-07T05:46:07;23.50;55.70
46932;DHT22;32670;51.464;11.964;2023-08-07T05:48:33;23.40;55.80
46932;DHT22;32670;51.464;11.964;2023-08-07T05:50:58;23.40;55.90
46932;DHT22;32670;51.464;11.964;2023-08-07T05:53:24;23.40;56.00
46932;DHT22;32670;51.464;11.964;2023-08-07T05:55:49;23.40;56.00
46932;DHT22;32670;51.464;11.964;2023-08-07T05:58:15;23.30;56.00
46932;DHT22;32670;51.464;11.964;2023-08-07T06:00:40;23.30;56.10
46932;DHT22;32670;51.464;11.964;2023-08-07T06:03:06;23.30;56.10
46932;DHT22;32670;51.464;11.964;2023-08-07T06:05:31;23.30;56.10
46932;DHT22;32670;51.464;11.964;2023-08-07T06:07:57;23.30;56.10
46932;DHT22;32670;51.464;11.964;2023-08-07T06:10:22;23.30;56.20
46932;DHT22;32670;51.464;11.964;2023-08-07T06:12:48;23.20;56.30
46932;DHT22;32670;51.464;11.964;2023-08-07T06:15:13;23.20;56.40
46932;DHT22;32670;51.464;11.964;2023-08-07T06:17:39;23.10;56.50
46932;DHT22;32670;51.464;11.964;2023-08-07T06:20:07;23.10;56.60
46932;DHT22;32670;51.464;11.964;2023-08-07T06:22:34;23.10;56.60
46932;DHT22;32670;51.464;11.964;2023-08-07T06:25:00;23.10;56.70
46932;DHT22;32670;51.464;11.964;2023-08-07T06:27:25;23.10;56.70
46932;DHT22;32670;51.464;11.964;2023-08-07T06:29:51;23.00;56.70
46932;DHT22;32670;51.464;11.964;2023-08-07T06:32:16;23.00;57.40
46932;DHT22;32670;51.464;11.964;2023-08-07T06:34:43;23.10;57.90
46932;DHT22;32670;51.464;11.964;2023-08-07T06:37:09;23.20;57.50
46932;DHT22;32670;51.464;11.964;2023-08-07T06:39:34;23.30;57.30
46932;DHT22;32670;51.464;11.964;2023-08-07T06:42:00;23.40;56.90
46932;DHT22;32670;51.464;11.964;2023-08-07T06:44:26;23.50;56.70
46932;DHT22;32670;51.464;11.964;2023-08-07T06:46:51;23.50;56.50
46932;DHT22;32670;51.464;11.964;2023-08-07T06:49:17;23.60;56.40
46932;DHT22;32670;51.464;11.964;2023-08-07T06:51:43;23.60;56.20
46932;DHT22;32670;51.464;11.964;2023-08-07T06:54:08;23.70;56.20
46932;DHT22;32670;51.464;11.964;2023-08-07T06:56:34;23.70;56.00
46932;DHT22;32670;51.464;11.964;2023-08-07T06:58:59;23.70;56.00
46932;DHT22;32670;51.464;11.964;2023-08-07T07:01:25;23.80;55.90
46932;DHT22;32670;51.464;11.964;2023-08-07T07:03:50;23.80;55.90
46932;DHT22;32670;51.464;11.964;2023-08-07T07:06:18;23.80;55.80
46932;DHT22;32670;51.464;11.964;2023-08-07T07:08:44;23.80;55.70
46932;DHT22;32670;51.464;11.964;2023-08-07T07:11:09;23.90;55.70
46932;DHT22;32670;51.464;11.964;2023-08-07T07:13:35;23.90;55.70
46932;DHT22;32670;51.464;11.964;2023-08-07T07:16:00;23.90;55.60
46932;DHT22;32670;51.464;11.964;2023-08-07T07:18:26;23.90;55.60
46932;DHT22;32670;51.464;11.964;2023-08-07T07:20:59;23.90;55.60
46932;DHT22;32670;51.464;11.964;2023-08-07T07:23:25;23.90;55.50
46932;DHT22;32670;51.464;11.964;2023-08-07T07:25:51;23.90;55.50
46932;DHT22;32670;51.464;11.964;2023-08-07T07:28:16;23.90;55.50
46932;DHT22;32670;51.464;11.964;2023-08-07T07:30:44;24.00;55.50
46932;DHT22;32670;51.464;11.964;2023-08-07T07:33:10;24.00;55.50
46932;DHT22;32670;51.464;11.964;2023-08-07T07:35:39;23.90;55.40
46932;DHT22;32670;51.464;11.964;2023-08-07T07:38:06;24.00;55.40
46932;DHT22;32670;51.464;11.964;2023-08-07T07:40:31;24.00;55.40
46932;DHT22;32670;51.464;11.964;2023-08-07T07:42:57;24.00;55.40
46932;DHT22;32670;51.464;11.964;2023-08-07T07:45:23;24.00;55.40
46932;DHT22;32670;51.464;11.964;2023-08-07T07:47:48;24.00;55.40
46932;DHT22;32670;51.464;11.964;2023-08-07T07:50:14;24.00;55.30
46932;DHT22;32670;51.464;11.964;2023-08-07T07:52:39;24.00;55.30
46932;DHT22;32670;51.464;11.964;2023-08-07T07:55:05;24.00;55.30
46932;DHT22;32670;51.464;11.964;2023-08-07T07:57:31;24.10;55.30
46932;DHT22;32670;51.464;11.964;2023-08-07T07:59:57;24.10;55.30
46932;DHT22;32670;51.464;11.964;2023-08-07T08:02:22;24.10;55.30
46932;DHT22;32670;51.464;11.964;2023-08-07T08:04:51;24.10;55.30
46932;DHT22;32670;51.464;11.964;2023-08-07T08:07:16;24.10;55.30
46932;DHT22;32670;51.464;11.964;2023-08-07T08:09:42;24.10;55.90
46932;DHT22;32670;51.464;11.964;2023-08-07T08:12:08;24.10;55.30
46932;DHT22;32670;51.464;11.964;2023-08-07T08:14:34;24.10;54.90
46932;DHT22;32670;51.464;11.964;2023-08-07T08:16:59;24.10;55.30
46932;DHT22;32670;51.464;11.964;2023-08-07T08:19:25;24.20;55.30
46932;DHT22;32670;51.464;11.964;2023-08-07T08:21:50;24.10;55.50
46932;DHT22;32670;51.464;11.964;2023-08-07T08:24:15;24.10;55.40
46932;DHT22;32670;51.464;11.964;2023-08-07T08:26:41;24.10;55.50
46932;DHT22;32670;51.464;11.964;2023-08-07T08:29:06;24.10;55.40
46932;DHT22;32670;51.464;11.964;2023-08-07T08:31:33;24.20;55.40
46932;DHT22;32670;51.464;11.964;2023-08-07T08:33:59;24.10;55.50
46932;DHT22;32670;51.464;11.964;2023-08-07T08:36:24;24.10;55.50
46932;DHT22;32670;51.464;11.964;2023-08-07T08:38:50;24.10;55.60
46932;DHT22;32670;51.464;11.964;2023-08-07T08:41:17;24.20;55.50
46932;DHT22;32670;51.464;11.964;2023-08-07T08:43:45;24.10;55.50
46932;DHT22;32670;51.464;11.964;2023-08-07T08:46:14;24.20;55.50
46932;DHT22;32670;51.464;11.964;2023-08-07T08:48:40;24.20;55.40
46932;DHT22;32670;51.464;11.964;2023-08-07T08:51:08;24.20;55.40
46932;DHT22;32670;51.464;11.964;2023-08-07T08:53:34;24.20;55.40
46932;DHT22;32670;51.464;11.964;2023-08-07T08:56:01;24.20;55.40
46932;DHT22;32670;51.464;11.964;2023-08-07T08:58:27;24.20;55.40
46932;DHT22;32670;51.464;11.964;2023-08-07T09:00:53;24.20;55.40
46932;DHT22;32670;51.464;11.964;2023-08-07T09:03:19;24.20;55.30
46932;DHT22;32670;51.464;11.964;2023-08-07T09:05:46;24.20;55.40
46932;DHT22;32670;51.464;11.964;2023-08-07T09:08:12;24.20;55.40
46932;DHT22;32670;51.464;11.964;2023-08-07T09:10:39;24.20;55.40
46932;DHT22;32670;51.464;11.964;2023-08-07T09:13:08;24.20;55.40
46932;DHT22;32670;51.464;11.964;2023-08-07T09:15:36;24.20;55.30
46932;DHT22;32670;51.464;11.964;2023-08-07T09:18:05;24.20;55.30
46932;DHT22;32670;51.464;11.964;2023-08-07T09:20:33;24.20;55.30
46932;DHT22;32670;51.464;11.964;2023-08-07T09:22:59;24.30;55.30
46932;DHT22;32670;51.464;11.964;2023-08-07T09:25:30;24.30;55.30
46932;DHT22;32670;51.464;11.964;2023-08-07T09:27:56;24.30;55.30
46932;DHT22;32670;51.464;11.964;2023-08-07T09:30:29;24.20;55.30
46932;DHT22;32670;51.464;11.964;2023-08-07T09:32:57;24.20;55.30
46932;DHT22;32670;51.464;11.964;2023-08-07T09:35:22;24.30;55.30
46932;DHT22;32670;51.464;11.964;2023-08-07T09:37:49;24.30;55.40
46932;DHT22;32670;51.464;11.964;2023-08-07T09:40:14;24.30;55.40
46932;DHT22;32670;51.464;11.964;2023-08-07T09:42:41;24.30;55.30
46932;DHT22;32670;51.464;11.964;2023-08-07T09:45:24;24.30;55.40
46932;DHT22;32670;51.464;11.964;2023-08-07T09:48:03;24.30;55.30
46932;DHT22;32670;51.464;11.964;2023-08-07T09:50:30;24.30;55.30
46932;DHT22;32670;51.464;11.964;2023-08-07T09:52:56;24.30;55.30
46932;DHT22;32670;51.464;11.964;2023-08-07T09:55:23;24.30;55.30
46932;DHT22;32670;51.464;11.964;2023-08-07T09:57:50;24.30;55.30
46932;DHT22;32670;51.464;11.964;2023-08-07T10:00:16;24.30;55.30
46932;DHT22;32670;51.464;11.964;2023-08-07T10:02:46;24.30;55.30
46932;DHT22;32670;51.464;11.964;2023-08-07T10:05:13;24.30;55.30
46932;DHT22;32670;51.464;11.964;2023-08-07T10:07:39;24.30;55.30
46932;DHT22;32670;51.464;11.964;2023-08-07T10:10:08;24.30;55.30
46932;DHT22;32670;51.464;11.964;2023-08-07T10:12:36;24.30;55.20
46932;DHT22;32670;51.464;11.964;2023-08-07T10:15:02;24.30;55.20
46932;DHT22;32670;51.464;11.964;2023-08-07T10:17:28;24.30;55.20
46932;DHT22;32670;51.464;11.964;2023-08-07T10:19:54;24.30;55.20
46932;DHT22;32670;51.464;11.964;2023-08-07T10:22:20;24.30;55.20
46932;DHT22;32670;51.464;11.964;2023-08-07T10:24:50;24.30;55.20
46932;DHT22;32670;51.464;11.964;2023-08-07T10:27:20;24.30;55.20
46932;DHT22;32670;51.464;11.964;2023-08-07T10:29:47;24.30;55.20
46932;DHT22;32670;51.464;11.964;2023-08-07T10:32:14;24.30;55.20
46932;DHT22;32670;51.464;11.964;2023-08-07T10:34:42;24.30;55.20
46932;DHT22;32670;51.464;11.964;2023-08-07T10:40:04;24.30;55.20
46932;DHT22;32670;51.464;11.964;2023-08-07T10:45:18;24.40;55.20
46932;DHT22;32670;51.464;11.964;2023-08-07T10:47:57;24.30;55.20
46932;DHT22;32670;51.464;11.964;2023-08-07T10:50:28;24.30;55.20
46932;DHT22;32670;51.464;11.964;2023-08-07T10:52:54;24.30;55.20
46932;DHT22;32670;51.464;11.964;2023-08-07T10:55:19;24.40;55.20
46932;DHT22;32670;51.464;11.964;2023-08-07T10:57:46;24.40;55.20
46932;DHT22;32670;51.464;11.964;2023-08-07T11:00:12;24.40;55.20
46932;DHT22;32670;51.464;11.964;2023-08-07T11:02:41;24.40;55.10
46932;DHT22;32670;51.464;11.964;2023-08-07T11:05:07;24.40;55.70
46932;DHT22;32670;51.464;11.964;2023-08-07T11:07:33;24.40;55.10
46932;DHT22;32670;51.464;11.964;2023-08-07T11:09:59;24.40;55.10
46932;DHT22;32670;51.464;11.964;2023-08-07T11:12:26;24.40;55.10
46932;DHT22;32670;51.464;11.964;2023-08-07T11:14:52;24.40;55.10
46932;DHT22;32670;51.464;11.964;2023-08-07T11:17:18;24.40;55.10
46932;DHT22;32670;51.464;11.964;2023-08-07T11:19:47;24.40;55.10
46932;DHT22;32670;51.464;11.964;2023-08-07T11:22:12;24.40;55.10
46932;DHT22;32670;51.464;11.964;2023-08-07T11:24:40;24.40;55.10
46932;DHT22;32670;51.464;11.964;2023-08-07T11:27:07;24.40;55.10
46932;DHT22;32670;51.464;11.964;2023-08-07T11:29:33;24.40;55.10
46932;DHT22;32670;51.464;11.964;2023-08-07T11:31:59;24.40;55.10
46932;DHT22;32670;51.464;11.964;2023-08-07T11:34:24;24.40;55.10
46932;DHT22;32670;51.464;11.964;2023-08-07T11:36:50;24.40;55.10
46932;DHT22;32670;51.464;11.964;2023-08-07T11:39:16;24.50;55.10
46932;DHT22;32670;51.464;11.964;2023-08-07T11:41:42;24.40;55.10
46932;DHT22;32670;51.464;11.964;2023-08-07T11:44:10;24.40;55.10
46932;DHT22;32670;51.464;11.964;2023-08-07T11:46:36;24.40;55.00
46932;DHT22;32670;51.464;11.964;2023-08-07T11:49:01;24.40;55.00
46932;DHT22;32670;51.464;11.964;2023-08-07T11:51:29;24.40;55.10
46932;DHT22;32670;51.464;11.964;2023-08-07T11:53:55;24.40;55.30
46932;DHT22;32670;51.464;11.964;2023-08-07T11:56:24;24.40;55.30
46932;DHT22;32670;51.464;11.964;2023-08-07T11:58:51;24.40;55.20
46932;DHT22;32670;51.464;11.964;2023-08-07T12:01:18;24.40;55.20
46932;DHT22;32670;51.464;11.964;2023-08-07T12:04:08;24.40;55.20
46932;DHT22;32670;51.464;11.964;2023-08-07T12:06:34;24.40;55.10
46932;DHT22;32670;51.464;11.964;2023-08-07T12:09:08;24.40;55.10
46932;DHT22;32670;51.464;11.964;2023-08-07T12:11:38;24.40;55.30
46932;DHT22;32670;51.464;11.964;2023-08-07T12:14:04;24.40;55.30
46932;DHT22;32670;51.464;11.964;2023-08-07T12:16:33;24.40;55.40
46932;DHT22;32670;51.464;11.964;2023-08-07T12:18:59;24.40;55.50
46932;DHT22;32670;51.464;11.964;2023-08-07T12:21:26;24.50;55.50
46932;DHT22;32670;51.464;11.964;2023-08-07T12:23:55;24.50;55.40
46932;DHT22;32670;51.464;11.964;2023-08-07T12:26:21;24.50;55.40
46932;DHT22;32670;51.464;11.964;2023-08-07T12:28:46;24.40;55.30
46932;DHT22;32670;51.464;11.964;2023-08-07T12:31:12;24.50;55.30
46932;DHT22;32670;51.464;11.964;2023-08-07T12:33:37;24.40;55.20
46932;DHT22;32670;51.464;11.964;2023-08-07T12:36:03;24.50;55.20
46932;DHT22;32670;51.464;11.964;2023-08-07T12:38:28;24.50;55.20
46932;DHT22;32670;51.464;11.964;2023-08-07T12:40:54;24.50;55.20
46932;DHT22;32670;51.464;11.964;2023-08-07T12:43:20;24.50;55.20
46932;DHT22;32670;51.464;11.964;2023-08-07T12:45:46;24.50;55.10
46932;DHT22;32670;51.464;11.964;2023-08-07T12:48:11;24.50;55.10
46932;DHT22;32670;51.464;11.964;2023-08-07T12:50:38;24.50;55.10
46932;DHT22;32670;51.464;11.964;2023-08-07T12:53:03;24.50;55.10
46932;DHT22;32670;51.464;11.964;2023-08-07T12:55:29;24.50;55.10
46932;DHT22;32670;51.464;11.964;2023-08-07T12:57:55;24.50;55.10
46932;DHT22;32670;51.464;11.964;2023-08-07T13:00:22;24.50;55.10
46932;DHT22;32670;51.464;11.964;2023-08-07T13:02:49;24.50;55.10
46932;DHT22;32670;51.464;11.964;2023-08-07T13:05:16;24.50;55.10
46932;DHT22;32670;51.464;11.964;2023-08-07T13:07:43;24.50;55.10
46932;DHT22;32670;51.464;11.964;2023-08-07T13:10:11;24.50;55.10
46932;DHT22;32670;51.464;11.964;2023-08-07T13:12:41;24.50;55.10
46932;DHT22;32670;51.464;11.964;2023-08-07T13:15:09;24.50;55.00
46932;DHT22;32670;51.464;11.964;2023-08-07T13:17:35;24.50;55.10
46932;DHT22;32670;51.464;11.964;2023-08-07T13:20:02;24.50;55.10
46932;DHT22;32670;51.464;11.964;2023-08-07T13:22:32;24.50;55.20
46932;DHT22;32670;51.464;11.964;2023-08-07T13:24:57;24.50;55.10
46932;DHT22;32670;51.464;11.964;2023-08-07T13:27:23;24.50;55.10
46932;DHT22;32670;51.464;11.964;2023-08-07T13:29:48;24.50;55.10
46932;DHT22;32670;51.464;11.964;2023-08-07T13:32:14;24.50;55.10
46932;DHT22;32670;51.464;11.964;2023-08-07T13:34:40;24.50;55.10
46932;DHT22;32670;51.464;11.964;2023-08-07T13:37:05;24.60;55.10
46932;DHT22;32670;51.464;11.964;2023-08-07T13:39:32;24.50;55.00
46932;DHT22;32670;51.464;11.964;2023-08-07T13:41:57;24.50;55.00
46932;DHT22;32670;51.464;11.964;2023-08-07T13:44:25;24.50;55.00
46932;DHT22;32670;51.464;11.964;2023-08-07T13:46:50;24.60;55.10
46932;DHT22;32670;51.464;11.964;2023-08-07T13:49:17;24.60;55.10
46932;DHT22;32670;51.464;11.964;2023-08-07T13:51:43;24.60;55.20
46932;DHT22;32670;51.464;11.964;2023-08-07T13:54:08;24.50;55.20
46932;DHT22;32670;51.464;11.964;2023-08-07T13:56:34;24.50;55.10
46932;DHT22;32670;51.464;11.964;2023-08-07T13:59:00;24.60;55.10
46932;DHT22;32670;51.464;11.964;2023-08-07T14:01:26;24.50;55.20
46932;DHT22;32670;51.464;11.964;2023-08-07T14:03:52;24.60;55.30
46932;DHT22;32670;51.464;11.964;2023-08-07T14:06:17;24.50;55.20
46932;DHT22;32670;51.464;11.964;2023-08-07T14:08:42;24.60;55.20
46932;DHT22;32670;51.464;11.964;2023-08-07T14:11:08;24.60;55.20
46932;DHT22;32670;51.464;11.964;2023-08-07T14:13:34;24.60;55.70
46932;DHT22;32670;51.464;11.964;2023-08-07T14:15:59;24.60;55.10
46932;DHT22;32670;51.464;11.964;2023-08-07T14:18:24;24.60;55.10
46932;DHT22;32670;51.464;11.964;2023-08-07T14:20:50;24.60;55.10
46932;DHT22;32670;51.464;11.964;2023-08-07T14:23:15;24.60;55.10
46932;DHT22;32670;51.464;11.964;2023-08-07T14:25:41;24.60;55.10
46932;DHT22;32670;51.464;11.964;2023-08-07T14:28:06;24.60;55.00
46932;DHT22;32670;51.464;11.964;2023-08-07T14:30:33;24.60;55.10
46932;DHT22;32670;51.464;11.964;2023-08-07T14:32:59;24.60;55.00
46932;DHT22;32670;51.464;11.964;2023-08-07T14:35:24;24.60;55.10
46932;DHT22;32670;51.464;11.964;2023-08-07T14:37:49;24.60;55.00
46932;DHT22;32670;51.464;11.964;2023-08-07T14:40:15;24.60;55.00
46932;DHT22;32670;51.464;11.964;2023-08-07T14:42:41;24.60;55.00
46932;DHT22;32670;51.464;11.964;2023-08-07T14:45:06;24.60;55.00
46932;DHT22;32670;51.464;11.964;2023-08-07T14:47:32;24.60;55.00
46932;DHT22;32670;51.464;11.964;2023-08-07T14:49:57;24.60;55.00
46932;DHT22;32670;51.464;11.964;2023-08-07T14:52:23;24.60;55.00
46932;DHT22;32670;51.464;11.964;2023-08-07T14:54:48;24.60;55.00
46932;DHT22;32670;51.464;11.964;2023-08-07T14:57:14;24.60;55.00
46932;DHT22;32670;51.464;11.964;2023-08-07T14:59:39;24.60;55.00
46932;DHT22;32670;51.464;11.964;2023-08-07T15:02:05;24.60;55.00
46932;DHT22;32670;51.464;11.964;2023-08-07T15:04:31;24.60;55.00
46932;DHT22;32670;51.464;11.964;2023-08-07T15:06:57;24.60;55.00
46932;DHT22;32670;51.464;11.964;2023-08-07T15:09:22;24.60;55.00
46932;DHT22;32670;51.464;11.964;2023-08-07T15:11:48;24.60;54.90
46932;DHT22;32670;51.464;11.964;2023-08-07T15:14:14;24.60;54.90
46932;DHT22;32670;51.464;11.964;2023-08-07T15:16:39;24.60;54.90
46932;DHT22;32670;51.464;11.964;2023-08-07T15:19:05;24.60;54.90